Main page
METAR-TAF:

METAR-TAF

Airports :

Rolla National Airport

Rolla, Missouri, United States

latitude: 38-07-55N, longitude: 091-45-55W, elevation: 1148 ft

Current weather observation

The report was made 51 minutes ago, at 05:53 UTC
Wind 7 mph from the North
Temperature 37°F
Humidity 44%
Pressure 30.15 in. Hg
Visibility: 10 miles
Clear sky

METAR: KVIH 100553Z AUTO 35006KT 10SM CLR 03/M08 A3015 RMK AO2 SLP211 T00281083 10128 20028 401560028 51031

Time: 01:44 (06:44 UTC)


TAF: missing

Weather observations and forecasts of more than 4000 airports (METAR and TAF reports).

The available stations are represented by yellow and red dots on the map.

Hover mouse over dot to see the name of the station.

Then click to see weather observations and forecasts.

To change the map : click on the green buttons with a black cross to zoom in, on the green button with a dash to zoom out, or on the green arrows for adjacent maps.


METAR-TAF: